sensor_id;sensor_type;location;lat;lon;timestamp;P1;durP1;ratioP1;P2;durP2;ratioP2
36817;SDS011;22761;51.542;16.450;2023-07-22T00:00:02;8.30;;;5.00;;
36817;SDS011;22761;51.542;16.450;2023-07-22T00:02:32;5.00;;;4.00;;
36817;SDS011;22761;51.542;16.450;2023-07-22T00:04:59;9.00;;;4.70;;
36817;SDS011;22761;51.542;16.450;2023-07-22T00:07:26;7.20;;;4.70;;
36817;SDS011;22761;51.542;16.450;2023-07-22T00:09:53;5.80;;;4.10;;
36817;SDS011;22761;51.542;16.450;2023-07-22T00:12:21;4.70;;;4.10;;
36817;SDS011;22761;51.542;16.450;2023-07-22T00:14:52;5.10;;;3.50;;
36817;SDS011;22761;51.542;16.450;2023-07-22T00:17:20;5.50;;;4.00;;
36817;SDS011;22761;51.542;16.450;2023-07-22T00:19:51;4.70;;;3.80;;
36817;SDS011;22761;51.542;16.450;2023-07-22T00:22:18;6.10;;;4.10;;
36817;SDS011;22761;51.542;16.450;2023-07-22T00:24:46;5.00;;;3.90;;
36817;SDS011;22761;51.542;16.450;2023-07-22T00:27:13;5.80;;;4.40;;
36817;SDS011;22761;51.542;16.450;2023-07-22T00:29:40;5.30;;;4.50;;
36817;SDS011;22761;51.542;16.450;2023-07-22T00:32:08;5.20;;;3.80;;
36817;SDS011;22761;51.542;16.450;2023-07-22T00:34:35;4.20;;;3.40;;
36817;SDS011;22761;51.542;16.450;2023-07-22T00:37:03;4.20;;;3.80;;
36817;SDS011;22761;51.542;16.450;2023-07-22T00:39:30;4.40;;;3.60;;
36817;SDS011;22761;51.542;16.450;2023-07-22T00:41:57;6.60;;;3.70;;
36817;SDS011;22761;51.542;16.450;2023-07-22T00:44:24;5.50;;;3.60;;
36817;SDS011;22761;51.542;16.450;2023-07-22T00:46:53;6.00;;;3.80;;
36817;SDS011;22761;51.542;16.450;2023-07-22T00:49:22;5.20;;;3.70;;
36817;SDS011;22761;51.542;16.450;2023-07-22T00:51:50;5.10;;;3.80;;
36817;SDS011;22761;51.542;16.450;2023-07-22T00:54:17;4.30;;;3.40;;
36817;SDS011;22761;51.542;16.450;2023-07-22T00:56:44;6.30;;;4.10;;
36817;SDS011;22761;51.542;16.450;2023-07-22T00:59:11;5.00;;;3.60;;
36817;SDS011;22761;51.542;16.450;2023-07-22T01:01:40;6.60;;;3.80;;
36817;SDS011;22761;51.542;16.450;2023-07-22T01:04:07;4.40;;;3.20;;
36817;SDS011;22761;51.542;16.450;2023-07-22T01:06:34;5.40;;;3.20;;
36817;SDS011;22761;51.542;16.450;2023-07-22T01:09:01;4.40;;;3.40;;
36817;SDS011;22761;51.542;16.450;2023-07-22T01:11:29;5.50;;;3.80;;
36817;SDS011;22761;51.542;16.450;2023-07-22T01:13:56;5.50;;;3.70;;
36817;SDS011;22761;51.542;16.450;2023-07-22T01:16:26;3.70;;;3.40;;
36817;SDS011;22761;51.542;16.450;2023-07-22T01:18:54;5.60;;;3.60;;
36817;SDS011;22761;51.542;16.450;2023-07-22T01:21:22;5.70;;;3.90;;
36817;SDS011;22761;51.542;16.450;2023-07-22T01:23:50;4.90;;;4.00;;
36817;SDS011;22761;51.542;16.450;2023-07-22T01:26:18;4.60;;;4.00;;
36817;SDS011;22761;51.542;16.450;2023-07-22T01:28:45;5.10;;;4.10;;
36817;SDS011;22761;51.542;16.450;2023-07-22T01:31:12;6.00;;;4.20;;
36817;SDS011;22761;51.542;16.450;2023-07-22T01:33:39;5.70;;;3.90;;
36817;SDS011;22761;51.542;16.450;2023-07-22T01:36:06;6.40;;;4.00;;
36817;SDS011;22761;51.542;16.450;2023-07-22T01:38:34;5.00;;;3.80;;
36817;SDS011;22761;51.542;16.450;2023-07-22T01:41:02;4.70;;;3.90;;
36817;SDS011;22761;51.542;16.450;2023-07-22T01:43:29;3.80;;;3.40;;
36817;SDS011;22761;51.542;16.450;2023-07-22T01:45:56;4.00;;;3.60;;
36817;SDS011;22761;51.542;16.450;2023-07-22T01:48:23;3.90;;;3.40;;
36817;SDS011;22761;51.542;16.450;2023-07-22T01:50:50;5.30;;;4.40;;
36817;SDS011;22761;51.542;16.450;2023-07-22T01:53:17;4.50;;;3.80;;
36817;SDS011;22761;51.542;16.450;2023-07-22T01:55:44;4.90;;;3.80;;
36817;SDS011;22761;51.542;16.450;2023-07-22T01:58:11;3.80;;;3.40;;
36817;SDS011;22761;51.542;16.450;2023-07-22T02:00:39;3.80;;;3.40;;
36817;SDS011;22761;51.542;16.450;2023-07-22T02:03:06;4.10;;;3.60;;
36817;SDS011;22761;51.542;16.450;2023-07-22T02:05:33;4.20;;;3.40;;
36817;SDS011;22761;51.542;16.450;2023-07-22T02:08:00;5.90;;;3.50;;
36817;SDS011;22761;51.542;16.450;2023-07-22T02:10:27;4.60;;;3.30;;
36817;SDS011;22761;51.542;16.450;2023-07-22T02:12:55;3.80;;;3.30;;
36817;SDS011;22761;51.542;16.450;2023-07-22T02:15:21;4.30;;;3.40;;
36817;SDS011;22761;51.542;16.450;2023-07-22T02:17:50;3.80;;;3.20;;
36817;SDS011;22761;51.542;16.450;2023-07-22T02:20:18;4.30;;;3.50;;
36817;SDS011;22761;51.542;16.450;2023-07-22T02:22:44;4.40;;;3.40;;
36817;SDS011;22761;51.542;16.450;2023-07-22T02:25:12;4.50;;;3.60;;
36817;SDS011;22761;51.542;16.450;2023-07-22T02:27:39;4.50;;;4.00;;
36817;SDS011;22761;51.542;16.450;2023-07-22T02:30:07;4.10;;;3.70;;
36817;SDS011;22761;51.542;16.450;2023-07-22T02:32:40;4.60;;;3.90;;
36817;SDS011;22761;51.542;16.450;2023-07-22T02:35:08;5.40;;;4.10;;
36817;SDS011;22761;51.542;16.450;2023-07-22T02:37:37;4.70;;;4.20;;
36817;SDS011;22761;51.542;16.450;2023-07-22T02:40:04;4.50;;;4.00;;
36817;SDS011;22761;51.542;16.450;2023-07-22T02:42:38;5.40;;;4.30;;
36817;SDS011;22761;51.542;16.450;2023-07-22T02:45:06;6.10;;;4.20;;
36817;SDS011;22761;51.542;16.450;2023-07-22T02:47:36;6.00;;;4.20;;
36817;SDS011;22761;51.542;16.450;2023-07-22T02:50:03;4.10;;;3.60;;
36817;SDS011;22761;51.542;16.450;2023-07-22T02:52:31;4.90;;;4.20;;
36817;SDS011;22761;51.542;16.450;2023-07-22T02:55:06;5.00;;;3.90;;
36817;SDS011;22761;51.542;16.450;2023-07-22T02:57:35;4.80;;;4.00;;
36817;SDS011;22761;51.542;16.450;2023-07-22T03:00:02;5.10;;;3.80;;
36817;SDS011;22761;51.542;16.450;2023-07-22T03:02:37;5.90;;;3.80;;
36817;SDS011;22761;51.542;16.450;2023-07-22T03:05:05;4.90;;;3.70;;
36817;SDS011;22761;51.542;16.450;2023-07-22T03:07:37;5.40;;;4.00;;
36817;SDS011;22761;51.542;16.450;2023-07-22T03:10:07;5.60;;;4.00;;
36817;SDS011;22761;51.542;16.450;2023-07-22T03:12:35;6.30;;;3.50;;
36817;SDS011;22761;51.542;16.450;2023-07-22T03:15:03;4.50;;;2.90;;
36817;SDS011;22761;51.542;16.450;2023-07-22T03:17:30;4.10;;;3.60;;
36817;SDS011;22761;51.542;16.450;2023-07-22T03:19:57;7.60;;;3.90;;
36817;SDS011;22761;51.542;16.450;2023-07-22T03:22:24;5.80;;;3.10;;
36817;SDS011;22761;51.542;16.450;2023-07-22T03:24:51;4.00;;;3.40;;
36817;SDS011;22761;51.542;16.450;2023-07-22T03:27:18;4.30;;;3.20;;
36817;SDS011;22761;51.542;16.450;2023-07-22T03:29:45;3.00;;;2.70;;
36817;SDS011;22761;51.542;16.450;2023-07-22T03:32:12;5.70;;;3.40;;
36817;SDS011;22761;51.542;16.450;2023-07-22T03:34:39;4.30;;;3.50;;
36817;SDS011;22761;51.542;16.450;2023-07-22T03:37:08;3.40;;;2.70;;
36817;SDS011;22761;51.542;16.450;2023-07-22T03:39:36;5.60;;;3.40;;
36817;SDS011;22761;51.542;16.450;2023-07-22T03:42:03;3.90;;;3.30;;
36817;SDS011;22761;51.542;16.450;2023-07-22T03:44:30;6.40;;;3.10;;
36817;SDS011;22761;51.542;16.450;2023-07-22T03:46:59;3.70;;;3.00;;
36817;SDS011;22761;51.542;16.450;2023-07-22T03:49:26;4.10;;;3.10;;
36817;SDS011;22761;51.542;16.450;2023-07-22T03:51:53;4.30;;;3.60;;
36817;SDS011;22761;51.542;16.450;2023-07-22T03:54:20;7.40;;;3.90;;
36817;SDS011;22761;51.542;16.450;2023-07-22T03:56:47;3.80;;;3.30;;
36817;SDS011;22761;51.542;16.450;2023-07-22T03:59:14;5.00;;;3.50;;
36817;SDS011;22761;51.542;16.450;2023-07-22T04:01:41;4.20;;;3.10;;
36817;SDS011;22761;51.542;16.450;2023-07-22T04:04:09;5.80;;;3.20;;
36817;SDS011;22761;51.542;16.450;2023-07-22T04:06:36;5.40;;;3.50;;
36817;SDS011;22761;51.542;16.450;2023-07-22T04:09:03;5.80;;;3.90;;
36817;SDS011;22761;51.542;16.450;2023-07-22T04:11:30;4.60;;;3.40;;
36817;SDS011;22761;51.542;16.450;2023-07-22T04:13:57;6.80;;;4.20;;
36817;SDS011;22761;51.542;16.450;2023-07-22T04:16:24;5.30;;;3.10;;
36817;SDS011;22761;51.542;16.450;2023-07-22T04:18:52;4.40;;;3.50;;
36817;SDS011;22761;51.542;16.450;2023-07-22T04:21:18;7.40;;;3.40;;
36817;SDS011;22761;51.542;16.450;2023-07-22T04:23:46;6.10;;;3.10;;
36817;SDS011;22761;51.542;16.450;2023-07-22T04:26:13;5.60;;;3.40;;
36817;SDS011;22761;51.542;16.450;2023-07-22T04:28:40;5.80;;;3.70;;
36817;SDS011;22761;51.542;16.450;2023-07-22T04:31:07;3.90;;;3.00;;
36817;SDS011;22761;51.542;16.450;2023-07-22T04:33:36;5.00;;;3.40;;
36817;SDS011;22761;51.542;16.450;2023-07-22T04:36:03;5.70;;;3.70;;
36817;SDS011;22761;51.542;16.450;2023-07-22T04:38:30;5.00;;;3.10;;
36817;SDS011;22761;51.542;16.450;2023-07-22T04:40:57;4.80;;;3.00;;
36817;SDS011;22761;51.542;16.450;2023-07-22T04:43:24;5.50;;;3.50;;
36817;SDS011;22761;51.542;16.450;2023-07-22T04:45:51;4.60;;;3.10;;
36817;SDS011;22761;51.542;16.450;2023-07-22T04:48:20;5.70;;;3.70;;
36817;SDS011;22761;51.542;16.450;2023-07-22T04:50:50;4.60;;;3.60;;
36817;SDS011;22761;51.542;16.450;2023-07-22T04:53:17;6.30;;;3.80;;
36817;SDS011;22761;51.542;16.450;2023-07-22T04:55:45;5.60;;;3.50;;
36817;SDS011;22761;51.542;16.450;2023-07-22T04:58:12;5.80;;;4.30;;
36817;SDS011;22761;51.542;16.450;2023-07-22T05:00:39;3.80;;;3.40;;
36817;SDS011;22761;51.542;16.450;2023-07-22T05:03:06;5.40;;;3.70;;
36817;SDS011;22761;51.542;16.450;2023-07-22T05:05:34;3.80;;;3.40;;
36817;SDS011;22761;51.542;16.450;2023-07-22T05:08:02;5.30;;;3.70;;
36817;SDS011;22761;51.542;16.450;2023-07-22T05:10:29;4.40;;;3.80;;
36817;SDS011;22761;51.542;16.450;2023-07-22T05:12:56;5.00;;;3.70;;
36817;SDS011;22761;51.542;16.450;2023-07-22T05:15:26;4.90;;;3.70;;
36817;SDS011;22761;51.542;16.450;2023-07-22T05:17:53;5.30;;;3.30;;
36817;SDS011;22761;51.542;16.450;2023-07-22T05:20:20;4.10;;;3.60;;
36817;SDS011;22761;51.542;16.450;2023-07-22T05:22:47;5.50;;;3.60;;
36817;SDS011;22761;51.542;16.450;2023-07-22T05:25:15;5.80;;;3.70;;
36817;SDS011;22761;51.542;16.450;2023-07-22T05:27:41;5.60;;;3.90;;
36817;SDS011;22761;51.542;16.450;2023-07-22T05:30:09;4.60;;;4.00;;
36817;SDS011;22761;51.542;16.450;2023-07-22T05:32:55;5.30;;;3.50;;
36817;SDS011;22761;51.542;16.450;2023-07-22T05:35:22;4.30;;;3.40;;
36817;SDS011;22761;51.542;16.450;2023-07-22T05:37:49;4.70;;;3.40;;
36817;SDS011;22761;51.542;16.450;2023-07-22T05:40:16;4.30;;;3.40;;
36817;SDS011;22761;51.542;16.450;2023-07-22T05:42:43;4.80;;;3.70;;
36817;SDS011;22761;51.542;16.450;2023-07-22T05:45:10;6.10;;;3.80;;
36817;SDS011;22761;51.542;16.450;2023-07-22T05:50:07;6.50;;;3.90;;
36817;SDS011;22761;51.542;16.450;2023-07-22T05:52:34;7.60;;;4.00;;
36817;SDS011;22761;51.542;16.450;2023-07-22T05:55:01;4.40;;;3.80;;
36817;SDS011;22761;51.542;16.450;2023-07-22T05:57:28;6.10;;;4.30;;
36817;SDS011;22761;51.542;16.450;2023-07-22T05:59:57;6.00;;;3.90;;
36817;SDS011;22761;51.542;16.450;2023-07-22T06:02:38;6.20;;;3.80;;
36817;SDS011;22761;51.542;16.450;2023-07-22T06:05:06;4.80;;;3.50;;
36817;SDS011;22761;51.542;16.450;2023-07-22T06:07:33;4.80;;;3.80;;
36817;SDS011;22761;51.542;16.450;2023-07-22T06:10:00;4.20;;;3.60;;
36817;SDS011;22761;51.542;16.450;2023-07-22T06:12:27;4.70;;;3.50;;
36817;SDS011;22761;51.542;16.450;2023-07-22T06:14:55;4.70;;;3.90;;
36817;SDS011;22761;51.542;16.450;2023-07-22T06:17:22;5.90;;;3.70;;
36817;SDS011;22761;51.542;16.450;2023-07-22T06:19:49;7.40;;;4.00;;
36817;SDS011;22761;51.542;16.450;2023-07-22T06:22:16;3.60;;;3.30;;
36817;SDS011;22761;51.542;16.450;2023-07-22T06:24:43;4.70;;;3.40;;
36817;SDS011;22761;51.542;16.450;2023-07-22T06:27:10;4.50;;;3.80;;
36817;SDS011;22761;51.542;16.450;2023-07-22T06:29:38;4.70;;;3.60;;
36817;SDS011;22761;51.542;16.450;2023-07-22T06:32:05;7.60;;;4.40;;
36817;SDS011;22761;51.542;16.450;2023-07-22T06:34:32;4.10;;;3.70;;
36817;SDS011;22761;51.542;16.450;2023-07-22T06:36:59;4.20;;;3.50;;
36817;SDS011;22761;51.542;16.450;2023-07-22T06:39:26;3.70;;;3.30;;
36817;SDS011;22761;51.542;16.450;2023-07-22T06:41:53;6.40;;;3.90;;
36817;SDS011;22761;51.542;16.450;2023-07-22T06:44:21;8.10;;;3.50;;
36817;SDS011;22761;51.542;16.450;2023-07-22T06:46:48;5.20;;;3.40;;
36817;SDS011;22761;51.542;16.450;2023-07-22T06:49:15;4.70;;;3.30;;
36817;SDS011;22761;51.542;16.450;2023-07-22T06:51:42;4.60;;;3.40;;
36817;SDS011;22761;51.542;16.450;2023-07-22T06:54:09;12.20;;;3.90;;
36817;SDS011;22761;51.542;16.450;2023-07-22T06:56:36;3.30;;;2.90;;
36817;SDS011;22761;51.542;16.450;2023-07-22T06:59:02;7.10;;;3.00;;
36817;SDS011;22761;51.542;16.450;2023-07-22T07:01:29;3.70;;;3.10;;
36817;SDS011;22761;51.542;16.450;2023-07-22T07:03:56;5.20;;;3.10;;
36817;SDS011;22761;51.542;16.450;2023-07-22T07:06:23;4.40;;;3.10;;
36817;SDS011;22761;51.542;16.450;2023-07-22T07:08:50;5.30;;;2.90;;
36817;SDS011;22761;51.542;16.450;2023-07-22T07:11:18;3.80;;;3.10;;
36817;SDS011;22761;51.542;16.450;2023-07-22T07:13:45;3.10;;;2.70;;
36817;SDS011;22761;51.542;16.450;2023-07-22T07:16:28;5.30;;;3.00;;
36817;SDS011;22761;51.542;16.450;2023-07-22T07:18:58;5.90;;;2.80;;
36817;SDS011;22761;51.542;16.450;2023-07-22T07:21:26;5.30;;;2.80;;
36817;SDS011;22761;51.542;16.450;2023-07-22T07:23:54;3.10;;;2.80;;
36817;SDS011;22761;51.542;16.450;2023-07-22T07:26:21;4.70;;;2.60;;
36817;SDS011;22761;51.542;16.450;2023-07-22T07:28:48;3.40;;;2.80;;
36817;SDS011;22761;51.542;16.450;2023-07-22T07:31:19;7.40;;;3.30;;
36817;SDS011;22761;51.542;16.450;2023-07-22T07:33:47;3.90;;;2.90;;
36817;SDS011;22761;51.542;16.450;2023-07-22T07:36:14;5.90;;;2.70;;
36817;SDS011;22761;51.542;16.450;2023-07-22T07:38:41;5.70;;;2.60;;
36817;SDS011;22761;51.542;16.450;2023-07-22T07:41:09;4.00;;;2.40;;
36817;SDS011;22761;51.542;16.450;2023-07-22T07:43:38;5.30;;;2.40;;
36817;SDS011;22761;51.542;16.450;2023-07-22T07:46:21;2.40;;;2.10;;
36817;SDS011;22761;51.542;16.450;2023-07-22T07:48:56;3.20;;;2.30;;
36817;SDS011;22761;51.542;16.450;2023-07-22T07:51:26;3.40;;;2.30;;
36817;SDS011;22761;51.542;16.450;2023-07-22T07:53:54;4.30;;;2.20;;
36817;SDS011;22761;51.542;16.450;2023-07-22T07:56:21;4.00;;;2.20;;
36817;SDS011;22761;51.542;16.450;2023-07-22T07:58:49;6.00;;;2.80;;
36817;SDS011;22761;51.542;16.450;2023-07-22T08:01:17;2.60;;;2.40;;
36817;SDS011;22761;51.542;16.450;2023-07-22T08:03:44;4.20;;;2.20;;
36817;SDS011;22761;51.542;16.450;2023-07-22T08:06:12;3.70;;;2.30;;
36817;SDS011;22761;51.542;16.450;2023-07-22T08:08:39;2.80;;;2.10;;
36817;SDS011;22761;51.542;16.450;2023-07-22T08:11:11;3.00;;;2.30;;
36817;SDS011;22761;51.542;16.450;2023-07-22T08:13:42;3.20;;;2.30;;
36817;SDS011;22761;51.542;16.450;2023-07-22T08:16:11;4.00;;;2.00;;
36817;SDS011;22761;51.542;16.450;2023-07-22T08:18:39;2.30;;;1.90;;
36817;SDS011;22761;51.542;16.450;2023-07-22T08:21:07;3.10;;;2.10;;
36817;SDS011;22761;51.542;16.450;2023-07-22T08:23:35;2.00;;;1.80;;
36817;SDS011;22761;51.542;16.450;2023-07-22T08:26:03;2.80;;;1.80;;
36817;SDS011;22761;51.542;16.450;2023-07-22T08:28:34;7.00;;;2.20;;
36817;SDS011;22761;51.542;16.450;2023-07-22T08:31:01;3.40;;;2.10;;
36817;SDS011;22761;51.542;16.450;2023-07-22T08:33:29;2.00;;;1.80;;
36817;SDS011;22761;51.542;16.450;2023-07-22T08:36:08;3.60;;;2.20;;
36817;SDS011;22761;51.542;16.450;2023-07-22T08:38:35;3.40;;;1.50;;
36817;SDS011;22761;51.542;16.450;2023-07-22T08:41:02;3.20;;;2.00;;
36817;SDS011;22761;51.542;16.450;2023-07-22T08:43:29;2.60;;;1.80;;
36817;SDS011;22761;51.542;16.450;2023-07-22T08:45:59;7.60;;;1.80;;
36817;SDS011;22761;51.542;16.450;2023-07-22T08:48:29;5.20;;;2.30;;
36817;SDS011;22761;51.542;16.450;2023-07-22T08:51:02;3.50;;;2.10;;
36817;SDS011;22761;51.542;16.450;2023-07-22T08:53:34;4.40;;;2.10;;
36817;SDS011;22761;51.542;16.450;2023-07-22T08:56:01;2.60;;;2.00;;
36817;SDS011;22761;51.542;16.450;2023-07-22T08:58:28;2.90;;;2.10;;
36817;SDS011;22761;51.542;16.450;2023-07-22T09:00:56;3.70;;;2.30;;
36817;SDS011;22761;51.542;16.450;2023-07-22T09:03:24;5.10;;;2.40;;
36817;SDS011;22761;51.542;16.450;2023-07-22T09:05:51;2.70;;;2.10;;
36817;SDS011;22761;51.542;16.450;2023-07-22T09:08:18;2.50;;;2.10;;
36817;SDS011;22761;51.542;16.450;2023-07-22T09:10:45;3.20;;;2.60;;
36817;SDS011;22761;51.542;16.450;2023-07-22T09:13:13;2.90;;;2.30;;
36817;SDS011;22761;51.542;16.450;2023-07-22T09:15:41;4.50;;;2.60;;
36817;SDS011;22761;51.542;16.450;2023-07-22T09:18:08;4.30;;;2.60;;
36817;SDS011;22761;51.542;16.450;2023-07-22T09:20:35;3.50;;;2.90;;
36817;SDS011;22761;51.542;16.450;2023-07-22T09:23:02;2.70;;;2.30;;
36817;SDS011;22761;51.542;16.450;2023-07-22T09:25:41;5.50;;;2.60;;
36817;SDS011;22761;51.542;16.450;2023-07-22T09:28:08;4.30;;;2.60;;
36817;SDS011;22761;51.542;16.450;2023-07-22T09:30:37;3.70;;;3.00;;
36817;SDS011;22761;51.542;16.450;2023-07-22T09:33:06;3.60;;;2.70;;
36817;SDS011;22761;51.542;16.450;2023-07-22T09:35:45;4.20;;;3.00;;
36817;SDS011;22761;51.542;16.450;2023-07-22T09:38:22;4.90;;;2.70;;
36817;SDS011;22761;51.542;16.450;2023-07-22T09:40:51;4.20;;;2.90;;
36817;SDS011;22761;51.542;16.450;2023-07-22T09:43:21;4.20;;;2.50;;
36817;SDS011;22761;51.542;16.450;2023-07-22T09:45:50;3.80;;;2.80;;
36817;SDS011;22761;51.542;16.450;2023-07-22T09:48:17;3.30;;;2.40;;
36817;SDS011;22761;51.542;16.450;2023-07-22T09:50:44;5.10;;;2.60;;
36817;SDS011;22761;51.542;16.450;2023-07-22T09:53:14;3.10;;;2.40;;
36817;SDS011;22761;51.542;16.450;2023-07-22T09:55:42;4.50;;;2.30;;
36817;SDS011;22761;51.542;16.450;2023-07-22T09:58:10;4.00;;;2.10;;
36817;SDS011;22761;51.542;16.450;2023-07-22T10:00:37;2.70;;;2.50;;
36817;SDS011;22761;51.542;16.450;2023-07-22T10:03:07;5.10;;;2.20;;
36817;SDS011;22761;51.542;16.450;2023-07-22T10:05:38;5.30;;;2.40;;
36817;SDS011;22761;51.542;16.450;2023-07-22T10:08:05;3.70;;;2.60;;
36817;SDS011;22761;51.542;16.450;2023-07-22T10:10:39;3.90;;;2.40;;
36817;SDS011;22761;51.542;16.450;2023-07-22T10:13:07;6.00;;;2.40;;
36817;SDS011;22761;51.542;16.450;2023-07-22T10:15:34;4.30;;;2.10;;
36817;SDS011;22761;51.542;16.450;2023-07-22T10:18:02;3.80;;;2.10;;
36817;SDS011;22761;51.542;16.450;2023-07-22T10:20:30;3.80;;;2.40;;
36817;SDS011;22761;51.542;16.450;2023-07-22T10:23:01;3.40;;;2.30;;
36817;SDS011;22761;51.542;16.450;2023-07-22T10:25:27;4.20;;;2.40;;
36817;SDS011;22761;51.542;16.450;2023-07-22T10:27:55;3.90;;;2.60;;
36817;SDS011;22761;51.542;16.450;2023-07-22T10:30:22;4.70;;;2.40;;
36817;SDS011;22761;51.542;16.450;2023-07-22T10:32:50;2.90;;;2.50;;
36817;SDS011;22761;51.542;16.450;2023-07-22T10:38:10;2.70;;;2.20;;
36817;SDS011;22761;51.542;16.450;2023-07-22T10:40:51;2.60;;;2.10;;
36817;SDS011;22761;51.542;16.450;2023-07-22T10:43:32;4.90;;;2.50;;
36817;SDS011;22761;51.542;16.450;2023-07-22T10:46:08;3.80;;;2.50;;
36817;SDS011;22761;51.542;16.450;2023-07-22T10:48:37;3.50;;;2.30;;
36817;SDS011;22761;51.542;16.450;2023-07-22T10:51:13;4.40;;;2.70;;
36817;SDS011;22761;51.542;16.450;2023-07-22T10:53:47;3.90;;;2.30;;
36817;SDS011;22761;51.542;16.450;2023-07-22T10:56:15;6.40;;;2.30;;
36817;SDS011;22761;51.542;16.450;2023-07-22T11:04:05;3.50;;;1.80;;
36817;SDS011;22761;51.542;16.450;2023-07-22T11:12:00;3.30;;;2.00;;
36817;SDS011;22761;51.542;16.450;2023-07-22T11:14:49;5.00;;;2.10;;
36817;SDS011;22761;51.542;16.450;2023-07-22T11:17:18;3.10;;;1.90;;
36817;SDS011;22761;51.542;16.450;2023-07-22T11:19:48;3.00;;;2.10;;
36817;SDS011;22761;51.542;16.450;2023-07-22T11:22:16;3.20;;;2.20;;
36817;SDS011;22761;51.542;16.450;2023-07-22T11:24:43;3.20;;;2.10;;
36817;SDS011;22761;51.542;16.450;2023-07-22T11:27:10;4.10;;;1.70;;
36817;SDS011;22761;51.542;16.450;2023-07-22T11:29:38;2.90;;;1.90;;
36817;SDS011;22761;51.542;16.450;2023-07-22T11:32:06;3.80;;;1.50;;
36817;SDS011;22761;51.542;16.450;2023-07-22T11:34:42;1.90;;;1.70;;
36817;SDS011;22761;51.542;16.450;2023-07-22T11:37:13;1.80;;;1.50;;
36817;SDS011;22761;51.542;16.450;2023-07-22T11:39:41;2.80;;;1.70;;
36817;SDS011;22761;51.542;16.450;2023-07-22T11:42:09;2.80;;;1.80;;
36817;SDS011;22761;51.542;16.450;2023-07-22T11:44:36;3.40;;;1.70;;
36817;SDS011;22761;51.542;16.450;2023-07-22T11:47:06;2.10;;;1.80;;
36817;SDS011;22761;51.542;16.450;2023-07-22T11:49:39;4.10;;;1.50;;
36817;SDS011;22761;51.542;16.450;2023-07-22T11:54:35;5.10;;;1.70;;
36817;SDS011;22761;51.542;16.450;2023-07-22T11:57:14;3.50;;;1.60;;
36817;SDS011;22761;51.542;16.450;2023-07-22T11:59:45;2.70;;;1.70;;
36817;SDS011;22761;51.542;16.450;2023-07-22T12:02:16;2.10;;;1.70;;
36817;SDS011;22761;51.542;16.450;2023-07-22T12:05:01;1.80;;;1.70;;
36817;SDS011;22761;51.542;16.450;2023-07-22T12:07:30;2.60;;;1.90;;
36817;SDS011;22761;51.542;16.450;2023-07-22T12:10:01;4.20;;;1.80;;
36817;SDS011;22761;51.542;16.450;2023-07-22T12:12:42;3.80;;;1.70;;
36817;SDS011;22761;51.542;16.450;2023-07-22T12:15:15;3.20;;;1.90;;
36817;SDS011;22761;51.542;16.450;2023-07-22T12:17:44;3.00;;;1.90;;
36817;SDS011;22761;51.542;16.450;2023-07-22T12:20:14;2.50;;;1.70;;
36817;SDS011;22761;51.542;16.450;2023-07-22T12:22:42;3.90;;;1.90;;
36817;SDS011;22761;51.542;16.450;2023-07-22T12:25:10;1.80;;;1.50;;
36817;SDS011;22761;51.542;16.450;2023-07-22T12:27:37;3.80;;;1.80;;
36817;SDS011;22761;51.542;16.450;2023-07-22T12:30:05;1.90;;;1.60;;
36817;SDS011;22761;51.542;16.450;2023-07-22T12:32:33;3.10;;;1.70;;
36817;SDS011;22761;51.542;16.450;2023-07-22T12:35:00;2.50;;;1.90;;
36817;SDS011;22761;51.542;16.450;2023-07-22T12:37:29;2.40;;;1.60;;
36817;SDS011;22761;51.542;16.450;2023-07-22T12:39:56;3.40;;;1.50;;
36817;SDS011;22761;51.542;16.450;2023-07-22T12:42:23;1.60;;;1.50;;
36817;SDS011;22761;51.542;16.450;2023-07-22T12:44:50;2.40;;;1.80;;
36817;SDS011;22761;51.542;16.450;2023-07-22T12:47:18;2.60;;;1.80;;
36817;SDS011;22761;51.542;16.450;2023-07-22T12:49:45;2.50;;;1.90;;
36817;SDS011;22761;51.542;16.450;2023-07-22T12:52:12;2.40;;;1.70;;
36817;SDS011;22761;51.542;16.450;2023-07-22T12:54:40;2.90;;;1.60;;
36817;SDS011;22761;51.542;16.450;2023-07-22T12:57:08;3.40;;;1.70;;
36817;SDS011;22761;51.542;16.450;2023-07-22T12:59:34;2.00;;;1.50;;
36817;SDS011;22761;51.542;16.450;2023-07-22T13:02:01;2.00;;;1.50;;
36817;SDS011;22761;51.542;16.450;2023-07-22T13:04:29;4.30;;;1.70;;
36817;SDS011;22761;51.542;16.450;2023-07-22T13:06:56;1.80;;;1.40;;
36817;SDS011;22761;51.542;16.450;2023-07-22T13:09:23;2.50;;;1.90;;
36817;SDS011;22761;51.542;16.450;2023-07-22T13:11:50;2.10;;;1.70;;
36817;SDS011;22761;51.542;16.450;2023-07-22T13:14:17;3.70;;;2.20;;
36817;SDS011;22761;51.542;16.450;2023-07-22T13:16:45;2.10;;;1.60;;
36817;SDS011;22761;51.542;16.450;2023-07-22T13:19:11;4.20;;;2.20;;
36817;SDS011;22761;51.542;16.450;2023-07-22T13:21:38;3.70;;;1.80;;
36817;SDS011;22761;51.542;16.450;2023-07-22T13:24:05;2.90;;;2.10;;
36817;SDS011;22761;51.542;16.450;2023-07-22T13:26:33;3.10;;;1.70;;
36817;SDS011;22761;51.542;16.450;2023-07-22T13:29:05;2.10;;;1.90;;
36817;SDS011;22761;51.542;16.450;2023-07-22T13:31:32;2.50;;;2.00;;
36817;SDS011;22761;51.542;16.450;2023-07-22T13:33:59;3.50;;;2.30;;
36817;SDS011;22761;51.542;16.450;2023-07-22T13:36:26;2.00;;;1.70;;
36817;SDS011;22761;51.542;16.450;2023-07-22T13:38:53;2.20;;;1.80;;
36817;SDS011;22761;51.542;16.450;2023-07-22T13:41:20;3.60;;;1.90;;
36817;SDS011;22761;51.542;16.450;2023-07-22T13:43:47;2.20;;;1.60;;
36817;SDS011;22761;51.542;16.450;2023-07-22T13:46:13;4.80;;;1.80;;
36817;SDS011;22761;51.542;16.450;2023-07-22T13:48:40;1.90;;;1.70;;
36817;SDS011;22761;51.542;16.450;2023-07-22T13:51:07;3.50;;;1.90;;
36817;SDS011;22761;51.542;16.450;2023-07-22T13:53:35;2.10;;;1.80;;
36817;SDS011;22761;51.542;16.450;2023-07-22T13:56:02;3.90;;;1.90;;
36817;SDS011;22761;51.542;16.450;2023-07-22T13:58:29;2.10;;;1.70;;
36817;SDS011;22761;51.542;16.450;2023-07-22T14:00:56;2.90;;;1.70;;
36817;SDS011;22761;51.542;16.450;2023-07-22T14:03:26;1.80;;;1.50;;
36817;SDS011;22761;51.542;16.450;2023-07-22T14:05:53;4.20;;;1.80;;
36817;SDS011;22761;51.542;16.450;2023-07-22T14:08:20;3.10;;;1.60;;
36817;SDS011;22761;51.542;16.450;2023-07-22T14:10:46;2.40;;;1.60;;
36817;SDS011;22761;51.542;16.450;2023-07-22T14:13:13;3.30;;;1.90;;
36817;SDS011;22761;51.542;16.450;2023-07-22T14:15:41;2.20;;;1.70;;
36817;SDS011;22761;51.542;16.450;2023-07-22T14:18:08;2.20;;;1.70;;
36817;SDS011;22761;51.542;16.450;2023-07-22T14:20:35;1.70;;;1.60;;
36817;SDS011;22761;51.542;16.450;2023-07-22T14:23:02;2.50;;;1.90;;
36817;SDS011;22761;51.542;16.450;2023-07-22T14:25:31;4.50;;;2.10;;
36817;SDS011;22761;51.542;16.450;2023-07-22T14:27:58;2.60;;;1.90;;
36817;SDS011;22761;51.542;16.450;2023-07-22T14:30:24;2.60;;;2.30;;
36817;SDS011;22761;51.542;16.450;2023-07-22T14:32:51;2.60;;;2.10;;
36817;SDS011;22761;51.542;16.450;2023-07-22T14:35:19;3.30;;;2.20;;
36817;SDS011;22761;51.542;16.450;2023-07-22T14:37:46;2.50;;;2.30;;
36817;SDS011;22761;51.542;16.450;2023-07-22T14:40:14;2.40;;;2.20;;
36817;SDS011;22761;51.542;16.450;2023-07-22T14:42:41;3.20;;;2.00;;
36817;SDS011;22761;51.542;16.450;2023-07-22T14:45:08;2.90;;;2.20;;
36817;SDS011;22761;51.542;16.450;2023-07-22T14:47:35;5.70;;;2.20;;
36817;SDS011;22761;51.542;16.450;2023-07-22T14:50:02;2.30;;;2.00;;
36817;SDS011;22761;51.542;16.450;2023-07-22T14:52:30;2.40;;;2.00;;
36817;SDS011;22761;51.542;16.450;2023-07-22T14:54:57;4.70;;;2.10;;
36817;SDS011;22761;51.542;16.450;2023-07-22T14:57:24;4.30;;;2.00;;